Time;durP1;ratioP1;P1;durP2;ratioP2;P2;SDS_P1;SDS_P2;PMS_P1;PMS_P2;Temp;Humidity;BMP_temperature;BMP_pressure;BME280_temperature;BME280_humidity;BME280_pressure;Samples;Min_cycle;Max_cycle;Signal;HPM_P1;HPM_P2
2022/04/26 03:37:23;;;;;;;7.37;3.27;;;;;;;9.75;75.25;100652.23;1823004;78;26097;-61
2022/04/26 03:39:50;;;;;;;7.22;2.65;;;;;;;9.80;75.48;100660.26;1823042;78;25665;-61
2022/04/26 03:42:17;;;;;;;7.85;2.95;;;;;;;9.84;75.39;100652.78;1823024;78;25824;-62
2022/04/26 03:44:44;;;;;;;7.72;2.40;;;;;;;9.90;75.30;100657.64;1823042;78;25423;-62
2022/04/26 03:47:11;;;;;;;7.30;2.30;;;;;;;9.94;75.28;100662.25;1823087;78;27458;-62
2022/04/26 03:50:52;;;;;;;13.93;3.55;;;;;;;10.01;75.41;100658.86;1822505;77;25756;-63
2022/04/26 03:53:19;;;;;;;6.08;2.92;;;;;;;10.08;75.41;100669.09;1843237;76;26701;-62
2022/04/26 03:55:46;;;;;;;7.97;2.77;;;;;;;10.17;75.43;100669.11;1842731;77;25774;-62
2022/04/26 03:58:14;;;;;;;12.37;3.30;;;;;;;10.22;75.32;100672.73;1830142;77;25493;-62
2022/04/26 04:00:42;;;;;;;7.80;3.00;;;;;;;10.26;75.00;100676.00;1819232;78;27573;-62
2022/04/26 04:03:09;;;;;;;7.85;2.75;;;;;;;10.26;74.87;100675.53;1825044;76;25690;-62
2022/04/26 04:05:37;;;;;;;12.98;3.77;;;;;;;10.25;74.65;100675.64;1826267;77;25758;-62
2022/04/26 04:08:05;;;;;;;12.00;3.05;;;;;;;10.26;74.83;100682.73;1826333;78;25730;-62
2022/04/26 04:10:31;;;;;;;5.67;2.92;;;;;;;10.28;74.89;100686.97;1826055;78;25709;-62
2022/04/26 04:12:58;;;;;;;12.07;4.17;;;;;;;10.23;74.59;100692.39;1826106;78;27465;-62
2022/04/26 04:15:25;;;;;;;6.08;3.35;;;;;;;10.20;74.75;100695.38;1826221;77;25745;-62
2022/04/26 04:17:53;;;;;;;8.85;3.05;;;;;;;10.19;74.82;100701.23;1826632;77;25438;-62
2022/04/26 04:20:20;;;;;;;6.37;2.72;;;;;;;10.18;74.85;100711.14;1826438;78;25669;-61
2022/04/26 04:22:48;;;;;;;12.20;2.80;;;;;;;10.16;75.10;100706.89;1817730;77;25575;-62
2022/04/26 04:25:15;;;;;;;14.03;4.10;;;;;;;10.16;75.30;100708.23;1798926;79;27537;-62
2022/04/26 04:27:43;;;;;;;10.85;3.02;;;;;;;10.16;75.26;100706.89;1799249;79;25802;-61
2022/04/26 04:30:11;;;;;;;6.67;2.90;;;;;;;10.17;75.93;100709.44;1798689;79;25694;-61
2022/04/26 04:32:38;;;;;;;12.07;3.00;;;;;;;10.15;75.53;100716.78;1799316;78;25616;-62
2022/04/26 04:35:07;;;;;;;8.20;3.05;;;;;;;10.16;76.28;100717.65;1799062;79;25771;-62
2022/04/26 04:37:34;;;;;;;5.70;3.50;;;;;;;10.18;75.93;100730.44;1799274;78;27473;-62
2022/04/26 04:40:01;;;;;;;5.95;2.77;;;;;;;10.25;76.40;100732.97;1798688;79;25722;-62
2022/04/26 04:42:28;;;;;;;9.18;2.92;;;;;;;10.36;76.62;100736.05;1798995;79;25682;-62
2022/04/26 04:44:55;;;;;;;10.00;3.00;;;;;;;10.46;76.86;100732.94;1799196;79;25747;-62
2022/04/26 04:47:23;;;;;;;10.13;3.40;;;;;;;10.55;76.75;100738.48;1798932;78;25726;-62
2022/04/26 04:49:50;;;;;;;5.70;2.35;;;;;;;10.62;76.67;100743.66;1810528;77;28132;-61
2022/04/26 04:52:18;;;;;;;12.13;2.65;;;;;;;10.69;77.01;100733.20;1825893;78;25826;-62
2022/04/26 04:54:45;;;;;;;6.47;2.83;;;;;;;10.73;76.81;100741.34;1826612;78;25647;-61
2022/04/26 04:57:12;;;;;;;6.72;2.67;;;;;;;10.81;77.09;100733.43;1826354;78;25711;-62
2022/04/26 04:59:39;;;;;;;13.88;3.67;;;;;;;10.90;77.26;100739.83;1814576;78;25824;-62
2022/04/26 05:02:06;;;;;;;10.40;2.85;;;;;;;10.99;77.27;100741.69;1821878;76;28147;-62
2022/04/26 05:04:34;;;;;;;9.55;3.55;;;;;;;11.03;77.09;100739.56;1860240;77;25420;-62
2022/04/26 05:07:01;;;;;;;7.08;2.83;;;;;;;11.07;77.04;100743.19;1860289;77;25751;-62
2022/04/26 05:09:28;;;;;;;15.90;3.77;;;;;;;11.15;77.12;100743.84;1860481;77;25849;-62
2022/04/26 05:11:54;;;;;;;12.90;5.78;;;;;;;11.21;76.82;100739.23;1860359;76;25700;-62
2022/04/26 05:14:21;;;;;;;9.55;3.98;;;;;;;11.28;76.76;100734.97;1860349;77;27460;-62
2022/04/26 05:16:47;;;;;;;12.13;3.05;;;;;;;11.35;76.37;100738.44;1860210;77;25687;-62
2022/04/26 05:19:14;;;;;;;12.47;3.20;;;;;;;11.42;76.11;100734.20;1860359;77;25607;-62
2022/04/26 05:21:41;;;;;;;21.35;4.37;;;;;;;11.47;75.49;100739.16;1860262;77;25767;-62
2022/04/26 05:26:53;;;;;;;16.55;3.65;;;;;;;11.57;74.30;100750.75;1808280;79;27456;-62
2022/04/26 05:29:20;;;;;;;7.08;2.72;;;;;;;11.62;74.11;100744.94;1808496;79;26117;-62
2022/04/26 05:31:47;;;;;;;12.18;2.77;;;;;;;11.64;72.80;100750.56;1808609;79;26202;-62
2022/04/26 05:34:14;;;;;;;9.80;2.40;;;;;;;11.67;71.54;100748.06;1808370;79;25729;-62
2022/04/26 05:36:40;;;;;;;15.20;2.67;;;;;;;11.74;71.83;100746.48;1808442;79;27256;-62
2022/04/26 05:39:07;;;;;;;6.05;2.35;;;;;;;11.81;70.74;100757.55;1808313;79;27469;-62
2022/04/26 05:41:34;;;;;;;9.65;2.87;;;;;;;11.87;70.65;100761.88;1808344;79;25768;-63
2022/04/26 05:44:01;;;;;;;13.18;3.17;;;;;;;11.93;70.18;100767.16;1808260;79;25710;-62
2022/04/26 05:46:28;;;;;;;9.98;3.83;;;;;;;12.00;70.09;100764.77;1813582;78;25657;-62
2022/04/26 05:48:55;;;;;;;8.18;2.60;;;;;;;12.07;70.08;100767.73;1819783;77;25906;-62
2022/04/26 05:51:23;;;;;;;8.08;4.33;;;;;;;12.12;69.22;100770.83;1827671;77;27397;-62
2022/04/26 05:53:50;;;;;;;12.07;2.37;;;;;;;12.15;68.85;100764.64;1836722;78;25707;-62
2022/04/26 05:56:16;;;;;;;4.28;1.77;;;;;;;12.23;67.77;100772.52;1829426;78;25780;-62
2022/04/26 05:58:43;;;;;;;6.85;1.85;;;;;;;12.30;67.07;100776.33;1823570;78;25729;-62
2022/04/26 06:01:10;;;;;;;9.10;1.95;;;;;;;12.41;66.95;100772.11;1826473;78;25831;-62
2022/04/26 06:03:38;;;;;;;6.42;2.15;;;;;;;12.50;67.37;100774.39;1845077;76;27586;-62
2022/04/26 06:06:05;;;;;;;12.43;2.50;;;;;;;12.60;67.54;100773.85;1856420;77;25755;-62
2022/04/26 06:08:32;;;;;;;7.72;2.62;;;;;;;12.67;67.63;100774.11;1844185;76;25684;-62
2022/04/26 06:10:59;;;;;;;8.23;2.45;;;;;;;12.74;67.32;100775.69;1835999;77;25811;-62
2022/04/26 06:13:25;;;;;;;11.73;2.45;;;;;;;12.80;66.46;100773.76;1833040;76;25748;-62
2022/04/26 06:15:52;;;;;;;5.28;2.00;;;;;;;12.89;66.01;100773.33;1842854;76;29675;-62
2022/04/26 06:18:18;;;;;;;6.37;2.37;;;;;;;12.97;65.74;100773.42;1842813;77;25673;-62
2022/04/26 06:20:45;;;;;;;6.60;2.15;;;;;;;13.03;65.29;100776.89;1843913;77;25745;-62
2022/04/26 06:23:12;;;;;;;7.53;1.52;;;;;;;13.11;64.62;100785.08;1850332;77;25757;-62
2022/04/26 06:25:39;;;;;;;6.58;1.85;;;;;;;13.21;64.29;100776.05;1831697;77;25792;-62
2022/04/26 06:28:07;;;;;;;6.55;1.85;;;;;;;13.30;63.94;100774.62;1823110;78;27464;-62
2022/04/26 06:30:37;;;;;;;10.32;2.60;;;;;;;13.41;63.72;100776.27;1855979;77;25776;-62
2022/04/26 06:33:06;;;;;;;4.95;1.90;;;;;;;13.50;63.70;100778.55;1856599;77;25534;-61
2022/04/26 06:35:33;;;;;;;8.35;2.00;;;;;;;13.60;62.98;100778.45;1856508;77;25747;-62
2022/04/26 06:38:00;;;;;;;4.35;1.95;;;;;;;13.69;63.10;100779.39;1856758;77;25739;-62
2022/04/26 06:40:27;;;;;;;19.27;9.85;;;;;;;13.78;62.27;100785.20;1844080;77;27511;-61
2022/04/26 06:42:54;;;;;;;21.40;11.45;;;;;;;13.87;61.31;100784.75;1842924;76;25661;-61
2022/04/26 06:45:21;;;;;;;8.18;2.80;;;;;;;13.93;61.41;100780.92;1842879;77;25619;-62
2022/04/26 06:47:49;;;;;;;7.47;2.12;;;;;;;14.02;61.47;100787.25;1842800;77;25785;-62
2022/04/26 06:50:17;;;;;;;5.30;1.67;;;;;;;14.09;60.02;100787.44;1854202;76;25882;-62
2022/04/26 06:52:45;;;;;;;6.72;2.15;;;;;;;14.14;60.04;100787.83;1856641;77;27460;-62
2022/04/26 06:55:12;;;;;;;4.00;1.82;;;;;;;14.22;59.46;100794.64;1856412;77;25484;-62
2022/04/26 06:57:40;;;;;;;7.05;1.92;;;;;;;14.28;59.75;100793.16;1849372;77;25488;-62
2022/04/26 07:00:09;;;;;;;7.58;3.17;;;;;;;14.38;58.40;100791.19;1846337;77;25474;-62
2022/04/26 07:02:36;;;;;;;8.23;1.67;;;;;;;14.47;58.82;100800.70;1856480;77;25758;-62
2022/04/26 07:05:05;;;;;;;5.70;1.82;;;;;;;14.58;58.26;100792.28;1856522;77;28301;-62
2022/04/26 07:07:32;;;;;;;4.53;1.55;;;;;;;14.67;57.71;100794.05;1856191;77;25897;-62
2022/04/26 07:09:58;;;;;;;5.22;1.67;;;;;;;14.77;56.75;100800.70;1856464;77;25808;-62
2022/04/26 07:12:25;;;;;;;2.30;1.55;;;;;;;14.86;55.85;100799.73;1856244;76;27732;-61
2022/04/26 07:14:52;;;;;;;2.83;1.60;;;;;;;14.95;56.55;100795.69;1856484;76;25716;-62
2022/04/26 07:17:19;;;;;;;6.45;2.10;;;;;;;15.01;56.48;100797.24;1856996;76;27459;-62
2022/04/26 07:19:46;;;;;;;4.62;2.10;;;;;;;15.09;56.11;100802.34;1856176;76;26343;-62
2022/04/26 07:22:13;;;;;;;4.60;2.15;;;;;;;15.15;54.64;100804.38;1853963;77;25773;-62
2022/04/26 07:24:41;;;;;;;3.70;1.85;;;;;;;15.21;53.90;100807.77;1822785;77;26444;-62
2022/04/26 07:27:08;;;;;;;7.92;1.80;;;;;;;15.32;53.35;100810.69;1835975;77;25784;-62
2022/04/26 07:29:35;;;;;;;3.40;1.37;;;;;;;15.40;52.02;100813.91;1856569;77;27448;-62
2022/04/26 07:32:04;;;;;;;4.05;1.55;;;;;;;15.49;52.82;100812.90;1856183;77;25756;-62
2022/04/26 07:34:31;;;;;;;6.75;1.47;;;;;;;15.53;51.65;100818.34;1856504;76;25698;-62
2022/04/26 07:37:04;;;;;;;4.70;1.20;;;;;;;15.60;52.46;100818.50;1856595;77;25785;-62
2022/04/26 07:39:34;;;;;;;2.60;1.60;;;;;;;15.67;51.15;100816.83;1856686;77;25961;-62
2022/04/26 07:42:03;;;;;;;3.10;1.30;;;;;;;15.79;51.93;100812.75;1856712;77;27603;-62
2022/04/26 07:44:31;;;;;;;3.55;2.27;;;;;;;15.87;51.30;100809.23;1856474;77;25779;-62
2022/04/26 07:46:59;;;;;;;5.47;1.37;;;;;;;15.96;51.71;100812.77;1855989;77;25483;-62
2022/04/26 07:49:27;;;;;;;2.17;0.98;;;;;;;16.03;48.02;100818.37;1848219;77;25732;-62
2022/04/26 07:51:55;;;;;;;3.37;1.30;;;;;;;16.15;47.75;100824.28;1845475;76;25444;-62
2022/04/26 07:54:23;;;;;;;1.65;1.00;;;;;;;16.27;49.47;100824.28;1855287;77;27523;-62
2022/04/26 07:56:51;;;;;;;1.95;1.10;;;;;;;16.33;48.90;100818.14;1856500;77;25892;-63
2022/04/26 07:59:18;;;;;;;5.30;1.37;;;;;;;16.45;48.66;100815.91;1818521;77;25686;-62
2022/04/26 08:01:45;;;;;;;2.35;1.55;;;;;;;16.57;49.82;100819.95;1811130;77;25957;-62
2022/04/26 08:04:12;;;;;;;1.25;0.72;;;;;;;16.68;50.65;100822.80;1811249;78;25716;-62
2022/04/26 08:06:39;;;;;;;1.98;1.00;;;;;;;16.76;47.00;100815.14;1831679;78;27475;-62
2022/04/26 08:09:06;;;;;;;4.28;1.00;;;;;;;16.85;46.93;100814.08;1843006;76;25704;-62
2022/04/26 08:11:32;;;;;;;1.20;1.00;;;;;;;17.02;46.73;100818.11;1865764;76;25731;-63
2022/04/26 08:14:00;;;;;;;2.02;0.80;;;;;;;17.10;47.13;100824.86;1865809;76;27643;-62
2022/04/26 08:16:27;;;;;;;1.77;1.12;;;;;;;17.14;43.94;100813.98;1862259;76;25794;-62
2022/04/26 08:18:54;;;;;;;1.60;0.82;;;;;;;17.19;44.78;100822.43;1849039;77;27420;-62
2022/04/26 08:21:22;;;;;;;1.90;1.15;;;;;;;17.25;44.40;100826.31;1848921;77;25730;-62
2022/04/26 08:29:22;;;;;;;1.72;1.10;;;;;;;17.43;42.17;100824.69;1866071;76;25656;-62
2022/04/26 08:31:48;;;;;;;3.12;1.20;;;;;;;17.52;43.21;100824.96;1866162;76;29633;-62
2022/04/26 08:34:15;;;;;;;3.00;1.05;;;;;;;17.63;42.81;100816.02;1866267;76;25692;-62
2022/04/26 08:36:41;;;;;;;1.40;1.00;;;;;;;17.81;43.61;100817.08;1865935;76;25743;-62
2022/04/26 08:39:08;;;;;;;1.72;0.75;;;;;;;17.96;42.81;100823.97;1866063;76;25735;-62
2022/04/26 08:41:35;;;;;;;1.22;0.98;;;;;;;18.09;43.09;100819.25;1865760;76;25689;-62
2022/04/26 08:44:10;;;;;;;1.90;1.50;;;;;;;18.25;43.27;100816.36;1865892;76;27453;-62
2022/04/26 08:52:11;;;;;;;2.83;1.50;;;;;;;18.79;42.39;100813.03;1865975;76;25703;-63
2022/04/26 08:54:38;;;;;;;6.62;1.77;;;;;;;18.92;42.50;100818.67;1866058;76;25797;-62
2022/04/26 08:57:06;;;;;;;1.80;1.25;;;;;;;19.09;42.28;100814.39;1849114;77;27480;-62
2022/04/26 08:59:33;;;;;;;1.47;0.90;;;;;;;19.28;41.90;100825.69;1865502;76;25758;-63
2022/04/26 09:02:20;;;;;;;2.22;1.15;;;;;;;19.30;39.32;100821.76;1866169;76;25715;-63
2022/04/26 09:04:50;;;;;;;2.60;1.67;;;;;;;19.34;39.69;100823.05;1855726;76;25809;-62
2022/04/26 09:07:32;;;;;;;6.15;1.90;;;;;;;19.48;38.89;100819.94;1840638;77;25744;-63
2022/04/26 09:10:19;;;;;;;6.25;4.65;;;;;;;19.61;39.31;100823.32;1840704;77;28233;-63
2022/04/26 09:13:15;;;;;;;14.28;9.73;;;;;;;19.84;39.88;100823.66;1839951;76;25795;-63
2022/04/26 09:15:56;;;;;;;8.73;1.50;;;;;;;20.18;39.91;100812.51;1845625;76;25491;-63
2022/04/26 09:18:28;;;;;;;9.43;3.52;;;;;;;20.48;39.53;100824.59;1854632;77;26112;-63
2022/04/26 09:21:08;;;;;;;10.38;1.82;;;;;;;20.56;37.44;100827.16;1854672;77;25821;-63
2022/04/26 09:23:39;;;;;;;4.12;1.77;;;;;;;20.91;38.64;100819.46;1825774;77;27470;-63
2022/04/26 09:26:13;;;;;;;6.03;1.60;;;;;;;21.41;38.35;100822.81;1842442;77;25451;-62
2022/04/26 09:28:46;;;;;;;;;;;;;;;21.87;36.37;100819.83;1847624;77;25759;-63
2022/04/26 09:31:20;;;;;;;1.65;1.20;;;;;;;22.38;35.02;100828.97;1840500;77;25526;-63
2022/04/26 09:33:57;;;;;;;1.20;0.90;;;;;;;22.99;35.45;100826.41;1840600;77;25806;-63
2022/04/26 09:36:28;;;;;;;1.95;1.30;;;;;;;23.67;34.31;100822.75;1840901;76;27536;-62
2022/04/26 09:38:58;;;;;;;4.83;1.50;;;;;;;24.39;33.24;100822.38;1854504;77;25697;-63
2022/04/26 09:41:28;;;;;;;3.15;1.50;;;;;;;25.03;32.15;100838.62;1854689;77;25700;-63
2022/04/26 09:44:05;;;;;;;6.65;2.30;;;;;;;25.42;30.55;100821.81;1854325;77;25800;-63
2022/04/26 09:46:52;;;;;;;5.90;1.25;;;;;;;25.76;29.56;100820.25;1851962;77;25863;-63
2022/04/26 09:49:22;;;;;;;4.40;0.93;;;;;;;26.35;30.20;100825.53;1824922;77;27822;-63
2022/04/26 09:52:01;;;;;;;2.00;1.00;;;;;;;26.97;29.15;100811.72;1822919;77;25981;-63
2022/04/26 09:54:29;;;;;;;9.05;0.93;;;;;;;27.33;28.12;100817.41;1820955;78;25744;-63
2022/04/26 09:56:56;;;;;;;4.55;1.00;;;;;;;27.65;28.92;100818.84;1820959;78;26218;-63
2022/04/26 09:59:29;;;;;;;2.95;0.98;;;;;;;27.55;26.87;100821.41;1839762;77;25693;-63
2022/04/26 10:01:57;;;;;;;;;;;;;;;27.39;25.09;100825.22;1857435;77;27471;-63
2022/04/26 10:04:29;;;;;;;3.62;1.40;;;;;;;27.27;25.00;100818.94;1854520;77;26057;-63
2022/04/26 10:07:00;;;;;;;3.70;1.22;;;;;;;27.60;26.24;100817.34;1837764;76;25558;-63
2022/04/26 10:09:28;;;;;;;1.87;0.80;;;;;;;27.95;25.22;100818.52;1841589;77;25736;-63
2022/04/26 10:11:59;;;;;;;1.10;0.95;;;;;;;28.52;25.67;100817.16;1848838;77;25724;-63
2022/04/26 10:14:30;;;;;;;5.90;1.35;;;;;;;28.76;24.86;100819.17;1848945;77;27458;-63
2022/04/26 10:16:57;;;;;;;4.92;1.10;;;;;;;29.11;25.22;100815.16;1848938;77;25802;-63
2022/04/26 10:19:45;;;;;;;1.10;0.80;;;;;;;29.53;25.11;100810.06;1845753;77;25962;-63
2022/04/26 10:22:15;;;;;;;6.92;1.00;;;;;;;29.80;23.65;100805.88;1848803;76;25729;-63
2022/04/26 10:24:40;;;;;;;3.15;0.57;;;;;;;30.11;23.39;100807.52;1848615;77;25781;-64
2022/04/26 10:27:25;;;;;;;1.10;0.70;;;;;;;30.28;21.86;100817.89;1848722;77;27539;-64
2022/04/26 10:29:52;;;;;;;2.33;0.85;;;;;;;30.22;22.37;100809.27;1843524;76;25722;-63
2022/04/26 10:32:38;;;;;;;1.65;0.62;;;;;;;30.52;21.98;100805.57;1841091;77;25776;-63
2022/04/26 10:35:25;;;;;;;0.65;0.62;;;;;;;30.70;21.79;100800.94;1840231;77;25693;-63
2022/04/26 10:38:15;;;;;;;2.05;0.62;;;;;;;30.31;22.25;100800.44;1839253;76;25704;-63
2022/04/26 10:41:06;;;;;;;7.70;1.20;;;;;;;29.45;23.03;100796.97;1815901;78;26913;-63
2022/04/26 10:43:33;;;;;;;1.10;1.00;;;;;;;29.45;22.65;100803.08;1821522;78;25702;-63
2022/04/26 10:46:11;;;;;;;1.32;0.60;;;;;;;28.72;23.14;100805.55;1826371;78;25651;-64
2022/04/26 10:48:38;;;;;;;1.15;0.60;;;;;;;29.39;23.10;100795.80;1829518;77;26078;-64
2022/04/26 10:51:37;;;;;;;2.40;0.90;;;;;;;30.11;23.35;100800.58;1848673;77;25765;-65
2022/04/26 10:54:04;;;;;;;2.02;0.80;;;;;;;30.57;22.51;100802.27;1849109;77;28163;-65
2022/04/26 10:56:32;;;;;;;1.30;0.70;;;;;;;31.38;21.90;100790.31;1848393;77;25997;-63
2022/04/26 10:58:59;;;;;;;1.22;0.72;;;;;;;31.71;20.43;100798.43;1825809;77;25765;-63
2022/04/26 11:01:30;;;;;;;3.37;0.93;;;;;;;31.99;21.11;100791.48;1820904;78;26361;-64
2022/04/26 11:03:59;;;;;;;1.52;0.50;;;;;;;32.44;21.37;100793.06;1791347;79;25801;-65
2022/04/26 11:06:35;;;;;;;2.37;0.70;;;;;;;31.68;20.35;100798.44;1807204;78;27522;-63
2022/04/26 11:09:16;;;;;;;0.60;0.53;;;;;;;30.93;20.39;100793.23;1815561;79;26119;-63
2022/04/26 11:11:54;;;;;;;2.98;0.70;;;;;;;30.38;20.74;100791.31;1817234;77;25738;-64
2022/04/26 11:14:24;;;;;;;3.58;1.42;;;;;;;29.69;22.65;100799.95;1817169;77;25830;-64
2022/04/26 11:16:59;;;;;;;4.67;0.80;;;;;;;29.55;23.79;100805.09;1826254;77;25665;-62
2022/04/26 11:19:36;;;;;;;3.20;0.90;;;;;;;29.38;23.97;100792.73;1821248;77;27470;-65
2022/04/26 11:22:05;;;;;;;1.92;0.60;;;;;;;29.18;23.82;100799.17;1825822;77;25725;-65
2022/04/26 11:30:08;;;;;;;0.98;0.90;;;;;;;28.69;24.44;100801.34;1815539;79;25669;-63
2022/04/26 11:32:46;;;;;;;2.27;0.80;;;;;;;28.71;24.12;100795.03;1816093;77;28183;-66
2022/04/26 11:35:17;;;;;;;2.33;0.80;;;;;;;28.88;24.18;100786.64;1836465;77;25727;-65
2022/04/26 11:37:47;;;;;;;1.32;0.90;;;;;;;28.80;25.15;100796.79;1770269;80;25826;-64
2022/04/26 11:40:25;;;;;;;1.60;0.72;;;;;;;29.88;24.01;100794.83;1786460;80;25511;-65
2022/04/26 11:42:54;;;;;;;0.70;0.70;;;;;;;30.49;21.97;100790.80;1777078;80;25811;-66
2022/04/26 11:45:21;;;;;;;2.20;0.68;;;;;;;29.65;22.91;100788.00;1777230;80;28580;-64
2022/04/26 11:47:49;;;;;;;2.52;0.60;;;;;;;30.08;22.91;100787.23;1777236;80;25739;-63
2022/04/26 11:50:25;;;;;;;0.55;0.50;;;;;;;30.74;23.16;100784.03;1776994;80;25938;-65
2022/04/26 11:53:02;;;;;;;4.15;0.75;;;;;;;31.51;21.13;100779.20;1777487;80;25661;-65
2022/04/26 11:55:33;;;;;;;1.60;0.80;;;;;;;31.07;21.93;100779.66;1777141;80;25794;-65
2022/04/26 11:58:16;;;;;;;0.75;0.50;;;;;;;31.00;22.02;100779.95;1773693;79;27447;-65
2022/04/26 12:01:11;;;;;;;2.92;0.80;;;;;;;31.00;21.82;100776.32;1794041;79;32698;-66
2022/04/26 12:03:47;;;;;;;2.08;0.53;;;;;;;31.48;21.88;100781.70;1794834;79;25669;-66
2022/04/26 12:06:20;;;;;;;15.28;1.82;;;;;;;32.05;20.76;100778.94;1791066;79;25504;-64
2022/04/26 12:09:02;;;;;;;5.70;0.90;;;;;;;32.82;21.00;100782.91;1783114;80;25706;-67
2022/04/26 12:11:35;;;;;;;2.92;0.70;;;;;;;33.80;19.01;100780.03;1792211;80;28390;-65
2022/04/26 12:14:08;;;;;;;3.10;0.78;;;;;;;34.32;19.01;100776.19;1787297;79;25742;-65
2022/04/26 12:16:45;;;;;;;1.95;0.50;;;;;;;35.07;19.25;100770.50;1786395;80;25749;-66
2022/04/26 12:19:12;;;;;;;7.12;0.68;;;;;;;35.61;17.16;100765.22;1789405;80;25877;-66
2022/04/26 12:21:52;;;;;;;2.30;0.57;;;;;;;35.74;16.84;100760.22;1792560;80;25758;-65
2022/04/26 12:24:22;;;;;;;0.30;0.25;;;;;;;35.83;16.98;100758.37;1793511;80;27443;-66
2022/04/26 12:27:04;;;;;;;1.15;0.60;;;;;;;35.94;16.95;100763.27;1793352;80;25810;-65
2022/04/26 12:29:44;;;;;;;0.90;0.57;;;;;;;36.04;17.37;100758.03;1775905;80;25794;-65
2022/04/26 12:32:20;;;;;;;1.75;0.60;;;;;;;36.31;16.78;100761.39;1792826;79;25789;-65
2022/04/26 12:34:57;;;;;;;7.03;0.75;;;;;;;36.29;16.47;100757.25;1793799;80;25826;-64
2022/04/26 12:37:34;;;;;;;4.47;0.75;;;;;;;36.69;17.26;100762.34;1793598;80;27512;-66
2022/04/26 12:40:05;;;;;;;1.65;0.42;;;;;;;37.12;15.81;100752.97;1792580;80;25657;-65
2022/04/26 12:42:36;;;;;;;0.40;0.40;;;;;;;36.28;16.37;100749.44;1792284;79;25782;-65
2022/04/26 12:45:22;;;;;;;10.80;0.78;;;;;;;35.42;16.95;100746.51;1794235;79;25793;-65
2022/04/26 12:50:56;;;;;;;2.15;0.90;;;;;;;35.13;17.25;100744.70;1766650;80;28431;-65
2022/04/26 12:53:34;;;;;;;12.18;0.70;;;;;;;34.61;17.48;100747.35;1761042;80;25758;-63
2022/04/26 12:56:10;;;;;;;1.45;0.70;;;;;;;33.98;17.34;100749.17;1792718;80;25797;-66
2022/04/26 12:58:40;;;;;;;2.25;0.60;;;;;;;32.49;18.95;100750.45;1793678;80;25659;-64
2022/04/26 13:01:08;;;;;;;3.00;0.80;;;;;;;31.57;19.92;100749.46;1793929;79;25826;-66
2022/04/26 13:03:37;;;;;;;3.02;0.55;;;;;;;31.47;20.47;100741.12;1793571;80;28296;-66
2022/04/26 13:06:18;;;;;;;1.60;0.80;;;;;;;30.75;20.96;100750.15;1793300;79;25840;-65
2022/04/26 13:08:48;;;;;;;5.60;0.68;;;;;;;30.52;21.25;100738.95;1792578;80;25911;-64
2022/04/26 13:11:18;;;;;;;0.70;0.40;;;;;;;31.50;21.19;100746.98;1793792;80;25797;-64
2022/04/26 13:13:48;;;;;;;0.42;0.42;;;;;;;33.08;19.75;100741.81;1793909;79;25785;-65
2022/04/26 13:16:16;;;;;;;0.40;0.40;;;;;;;34.30;18.28;100745.75;1794135;79;27438;-64
2022/04/26 13:18:43;;;;;;;0.78;0.50;;;;;;;33.54;15.96;100749.00;1793771;79;25802;-64
2022/04/26 13:21:13;;;;;;;1.65;0.70;;;;;;;33.21;16.42;100732.53;1793515;79;25473;-65
2022/04/26 13:23:41;;;;;;;1.17;0.60;;;;;;;33.59;16.65;100732.79;1793470;79;25762;-65
2022/04/26 13:26:08;;;;;;;0.93;0.45;;;;;;;33.68;15.36;100739.97;1794183;80;25730;-64
2022/04/26 13:28:35;;;;;;;0.57;0.50;;;;;;;34.00;15.34;100734.38;1793788;80;27433;-64
2022/04/26 13:31:02;;;;;;;1.75;0.55;;;;;;;34.17;14.49;100736.13;1793391;80;25730;-66
2022/04/26 13:33:30;;;;;;;2.95;0.55;;;;;;;34.42;15.16;100742.59;1793809;80;25774;-66
2022/04/26 13:35:57;;;;;;;1.42;0.57;;;;;;;33.54;14.71;100747.61;1793670;79;26431;-65
2022/04/26 13:38:23;;;;;;;6.05;0.70;;;;;;;33.42;15.25;100738.81;1793578;80;25718;-65
2022/04/26 13:40:52;;;;;;;1.47;0.70;;;;;;;34.60;15.74;100737.34;1793926;80;27578;-65
2022/04/26 13:43:21;;;;;;;1.55;0.88;;;;;;;35.99;14.39;100734.34;1793671;80;25750;-65
2022/04/26 13:45:48;;;;;;;4.30;0.60;;;;;;;37.09;14.02;100735.37;1794011;80;25745;-66
2022/04/26 13:48:14;;;;;;;1.67;0.60;;;;;;;37.96;13.45;100732.94;1793709;80;25734;-66
2022/04/26 13:50:41;;;;;;;6.33;0.68;;;;;;;38.45;12.46;100730.71;1793953;80;25697;-66
2022/04/26 13:53:08;;;;;;;4.00;0.57;;;;;;;38.85;12.55;100734.02;1793824;80;27468;-66
2022/04/26 13:55:35;;;;;;;1.02;0.42;;;;;;;38.79;12.03;100736.16;1767600;78;26058;-66
2022/04/26 13:58:05;;;;;;;1.85;0.78;;;;;;;38.75;12.29;100742.19;1790121;80;25741;-67
2022/04/26 14:00:34;;;;;;;3.08;0.57;;;;;;;39.00;12.56;100739.14;1793460;80;25728;-69
2022/04/26 14:03:00;;;;;;;0.42;0.40;;;;;;;39.13;12.66;100740.16;1794081;80;26198;-66
2022/04/26 14:05:27;;;;;;;3.40;0.60;;;;;;;39.42;11.94;100736.68;1793673;80;27519;-67
2022/04/26 14:07:54;;;;;;;0.62;0.60;;;;;;;39.44;12.12;100732.11;1793494;80;25721;-65
2022/04/26 14:10:21;;;;;;;6.67;0.80;;;;;;;38.98;12.06;100737.27;1793190;80;25825;-66
2022/04/26 14:12:48;;;;;;;4.28;0.53;;;;;;;38.78;12.20;100735.32;1791719;79;25813;-66
2022/04/26 14:23:34;;;;;;;4.92;0.60;;;;;;;34.78;15.84;100745.46;1793548;80;25746;-65
2022/04/26 14:26:03;;;;;;;1.50;0.70;;;;;;;35.35;15.78;100741.84;1793712;80;25722;-65
2022/04/26 14:28:32;;;;;;;1.87;0.80;;;;;;;35.10;16.20;100747.53;1793790;80;25970;-65
2022/04/26 14:30:59;;;;;;;6.87;1.12;;;;;;;34.37;16.36;100748.77;1794053;80;28277;-65
2022/04/26 14:33:25;;;;;;;0.90;0.55;;;;;;;33.46;17.00;100752.42;1793433;80;25442;-66
2022/04/26 14:35:53;;;;;;;1.98;0.72;;;;;;;34.05;16.61;100748.29;1791586;79;25852;-67
2022/04/26 14:38:20;;;;;;;5.80;0.55;;;;;;;33.90;16.76;100760.98;1791472;80;25642;-66
2022/04/26 14:40:47;;;;;;;1.77;0.60;;;;;;;34.70;16.41;100755.33;1791691;80;25829;-65
2022/04/26 14:43:14;;;;;;;2.42;1.07;;;;;;;35.14;16.33;100756.14;1791665;80;27472;-65
2022/04/26 14:45:49;;;;;;;3.67;0.68;;;;;;;35.24;16.69;100760.73;1791575;80;25766;-65
2022/04/26 14:48:16;;;;;;;5.42;0.78;;;;;;;35.49;15.69;100754.52;1791654;80;25840;-67
2022/04/26 14:50:44;;;;;;;4.03;0.65;;;;;;;35.28;16.30;100758.19;1769285;80;25681;-67
2022/04/26 14:53:11;;;;;;;6.83;1.82;;;;;;;35.41;16.17;100760.23;1762393;81;25469;-67
2022/04/26 14:55:38;;;;;;;2.95;0.70;;;;;;;35.66;16.12;100766.52;1762619;81;27456;-66
2022/04/26 14:58:09;;;;;;;4.37;1.00;;;;;;;36.28;15.53;100766.23;1772691;80;26210;-66
2022/04/26 15:00:35;;;;;;;1.10;0.60;;;;;;;36.55;15.11;100767.95;1792999;80;25468;-66
2022/04/26 15:03:03;;;;;;;0.47;0.47;;;;;;;36.16;15.05;100765.91;1794003;80;25718;-66
2022/04/26 15:05:30;;;;;;;2.00;0.93;;;;;;;35.43;15.85;100770.55;1792613;80;26452;-67
2022/04/26 15:10:42;;;;;;;8.10;0.70;;;;;;;35.69;15.85;100775.13;1768349;79;25794;-67
2022/04/26 15:18:39;;;;;;;2.85;0.68;;;;;;;35.75;15.64;100774.47;1781991;80;27307;-66
2022/04/26 15:21:08;;;;;;;2.25;0.80;;;;;;;35.50;15.96;100771.56;1783967;80;27495;-66
2022/04/26 15:23:36;;;;;;;1.62;0.50;;;;;;;35.32;16.30;100771.81;1774491;79;25792;-66
2022/04/26 15:26:06;;;;;;;2.65;0.70;;;;;;;35.16;16.63;100773.45;1768067;81;25748;-66
2022/04/26 15:28:34;;;;;;;12.40;1.92;;;;;;;35.50;16.49;100772.96;1768330;81;25737;-66
2022/04/26 15:31:01;;;;;;;1.47;1.02;;;;;;;35.22;16.68;100780.62;1767963;81;25723;-66
2022/04/26 15:33:28;;;;;;;4.72;0.90;;;;;;;34.74;16.80;100781.55;1768019;81;27591;-65
2022/04/26 15:35:57;;;;;;;3.77;0.80;;;;;;;33.91;17.55;100790.55;1767811;81;25643;-66
2022/04/26 15:38:27;;;;;;;9.93;1.05;;;;;;;34.14;17.82;100779.16;1767350;81;25512;-65
2022/04/26 15:40:55;;;;;;;0.88;0.60;;;;;;;34.21;17.78;100785.22;1766878;81;25651;-66
2022/04/26 15:43:22;;;;;;;1.82;0.72;;;;;;;34.05;17.63;100791.55;1767251;81;25780;-66
2022/04/26 15:45:48;;;;;;;1.77;1.00;;;;;;;34.07;17.29;100788.45;1766961;81;28489;-66
2022/04/26 15:48:15;;;;;;;3.17;1.40;;;;;;;34.04;17.42;100792.67;1767095;81;25724;-66
2022/04/26 15:50:41;;;;;;;8.95;1.10;;;;;;;34.27;17.07;100795.77;1767444;81;25659;-66
2022/04/26 15:53:08;;;;;;;3.05;1.00;;;;;;;33.83;17.18;100802.59;1768205;79;26127;-67